RKSI/ICN METAR and TAF weather

Enter ICAO airport designator
Station Type Date Time Source
RKSI METAR 2020/02/21 03:00 UTC NOAA

RKSI 210300Z 15011KT 4500 HZ FEW040 BKN160 08/01 Q1031 NOSIG


Station Type Date Time Source
RKSI Decoded METAR 2020/02/21 03:00 UTC NOAA

Incheon International Airport, Korea, South (RKSI) 37-28N 126-27E
Feb 20, 2020 - 10:00 PM EST / 2020.02.21 0300 UTC
Wind: from the SSE (150 degrees) at 13 MPH (11 KT):0
Visibility: 2 mile(s):0
Sky conditions: mostly cloudy
Weather: haze
Temperature: 46 F (8 C)
Dew Point: 33 F (1 C)
Relative Humidity: 61%
Pressure (altimeter): 30.45 in. Hg (1031 hPa)
ob: RKSI 210300Z 15011KT 4500 HZ FEW040 BKN160 08/01 Q1031 NOSIG
cycle: 3

Station Type Date Time Source
RKSI TAF 2020/02/20 18:06 UTC NOAA

TAF RKSI 201700Z 2018/2124 15005KT 2500 BR FEW030 BKN150 TN00/2021Z TX11/2106Z TN03/2120Z
BECMG 2100/2101 6000 NSW
BECMG 2109/2110 23010KT 4200 -RA SCT005 BKN025 OVC080
BECMG 2112/2113 2800
BECMG 2118/2119 30012KT 4200 BR SCT030

Example: see airport list